createdAt,value
2022-08-16T00:02:03.565Z,18.00
2022-08-16T00:05:15.011Z,16.17
2022-08-16T00:08:36.120Z,18.50
2022-08-16T00:11:40.557Z,19.40
2022-08-16T00:14:42.381Z,16.70
2022-08-16T00:17:56.240Z,20.07
2022-08-16T00:20:59.074Z,17.77
2022-08-16T00:24:04.604Z,17.67
2022-08-16T00:27:06.977Z,19.07
2022-08-16T00:30:25.945Z,19.90
2022-08-16T00:33:30.779Z,15.63
2022-08-16T00:36:32.547Z,17.37
2022-08-16T00:39:34.536Z,18.30
2022-08-16T00:42:36.332Z,19.80
2022-08-16T00:45:55.453Z,15.10
2022-08-16T00:49:00.978Z,19.90
2022-08-16T00:52:04.362Z,16.10
2022-08-16T00:55:26.690Z,17.13
2022-08-16T00:58:42.719Z,15.97
2022-08-16T01:01:45.440Z,17.97
2022-08-16T01:05:11.241Z,18.67
2022-08-16T01:08:35.793Z,18.50
2022-08-16T01:11:34.563Z,17.83
2022-08-16T01:14:58.272Z,18.93
2022-08-16T01:18:01.062Z,17.27
2022-08-16T01:21:12.635Z,17.20
2022-08-16T01:24:51.665Z,16.20
2022-08-16T01:27:48.397Z,17.23
2022-08-16T01:30:52.268Z,16.83
2022-08-16T01:33:53.922Z,17.50
2022-08-16T01:37:01.383Z,17.57
2022-08-16T01:40:07.130Z,20.53
2022-08-16T01:43:09.569Z,16.37
2022-08-16T01:46:37.684Z,21.03
2022-08-16T01:50:42.407Z,16.60
2022-08-16T01:53:06.576Z,15.97
2022-08-16T01:56:32.272Z,19.00
2022-08-16T01:59:37.203Z,18.27
2022-08-16T02:02:45.484Z,17.27
2022-08-16T02:05:54.295Z,18.03
2022-08-16T02:08:56.182Z,19.87
2022-08-16T02:11:59.304Z,16.43
2022-08-16T02:15:25.222Z,18.33
2022-08-16T02:18:28.864Z,19.57
2022-08-16T02:21:33.680Z,17.40
2022-08-16T02:24:40.906Z,16.67
2022-08-16T02:27:45.179Z,16.03
2022-08-16T02:30:54.241Z,18.97
2022-08-16T02:33:56.069Z,21.13
2022-08-16T02:37:05.066Z,23.40
2022-08-16T02:40:10.313Z,18.13
2022-08-16T02:43:13.651Z,19.90
2022-08-16T02:46:17.389Z,18.53
2022-08-16T02:49:19.362Z,22.53
2022-08-16T02:52:29.204Z,17.13
2022-08-16T02:55:41.252Z,16.83
2022-08-16T02:58:50.120Z,20.63
2022-08-16T03:01:52.133Z,19.63
2022-08-16T03:05:02.238Z,16.53
2022-08-16T03:08:04.675Z,19.53
2022-08-16T03:11:16.555Z,17.83
2022-08-16T03:14:21.258Z,18.97
2022-08-16T03:17:32.396Z,16.20
2022-08-16T03:20:37.207Z,15.83
2022-08-16T03:23:40.333Z,18.73
2022-08-16T03:26:45.256Z,16.97
2022-08-16T03:29:54.383Z,19.00
2022-08-16T03:32:58.279Z,17.53
2022-08-16T03:36:30.238Z,16.90
2022-08-16T03:39:31.745Z,22.83
2022-08-16T03:42:33.987Z,16.80
2022-08-16T03:45:58.414Z,16.73
2022-08-16T03:49:05.218Z,16.90
2022-08-16T03:52:09.522Z,15.60
2022-08-16T03:55:15.272Z,19.87
2022-08-16T03:58:18.101Z,17.90
2022-08-16T04:01:21.145Z,22.27
2022-08-16T04:04:32.713Z,18.17
2022-08-16T04:07:36.991Z,19.17
2022-08-16T04:10:41.172Z,20.47
2022-08-16T04:14:01.799Z,17.60
2022-08-16T04:17:11.275Z,15.20
2022-08-16T04:20:31.137Z,16.27
2022-08-16T04:23:39.134Z,18.27
2022-08-16T04:26:46.084Z,26.77
2022-08-16T04:29:48.977Z,19.47
2022-08-16T04:32:55.707Z,17.80
2022-08-16T04:35:59.168Z,18.90
2022-08-16T04:39:03.258Z,17.17
2022-08-16T04:42:11.327Z,16.07
2022-08-16T04:45:14.950Z,19.67
2022-08-16T04:48:22.090Z,15.37
2022-08-16T04:51:36.628Z,16.93
2022-08-16T04:54:43.123Z,16.10
2022-08-16T04:57:46.061Z,14.60
2022-08-16T05:00:56.011Z,17.77
2022-08-16T05:04:00.892Z,18.60
2022-08-16T05:07:20.349Z,16.70
2022-08-16T05:10:42.966Z,16.37
2022-08-16T05:13:46.342Z,17.53
2022-08-16T05:16:54.685Z,13.63
2022-08-16T05:19:57.324Z,17.53
2022-08-16T05:23:04.737Z,16.50
2022-08-16T05:26:19.832Z,14.47
2022-08-16T05:29:24.856Z,12.83
2022-08-16T05:32:49.726Z,22.63
2022-08-16T05:35:54.867Z,13.27
2022-08-16T05:39:14.336Z,17.57
2022-08-16T05:42:19.753Z,18.03
2022-08-16T05:45:23.747Z,12.87
2022-08-16T05:48:29.732Z,15.60
2022-08-16T05:51:38.569Z,14.00
2022-08-16T05:54:47.284Z,12.67
2022-08-16T05:57:52.934Z,14.50
2022-08-16T06:00:56.045Z,15.60
2022-08-16T06:03:59.935Z,12.20
2022-08-16T06:07:24.286Z,11.60
2022-08-16T06:10:33.339Z,15.03
2022-08-16T06:13:42.240Z,12.27
2022-08-16T06:16:50.570Z,14.60
2022-08-16T06:19:54.435Z,41.00
2022-08-16T06:23:04.164Z,21.38
2022-08-16T06:26:45.993Z,14.88
2022-08-16T06:30:03.148Z,10.65
2022-08-16T06:33:05.883Z,15.25
2022-08-16T06:36:14.568Z,9.52
2022-08-16T06:39:21.637Z,11.48
2022-08-16T06:42:47.094Z,11.57
2022-08-16T06:46:20.882Z,11.55
2022-08-16T06:49:23.519Z,10.82
2022-08-16T06:52:57.799Z,11.35
2022-08-16T06:55:47.705Z,13.52
2022-08-16T06:58:57.659Z,10.15
2022-08-16T07:02:04.862Z,10.52
2022-08-16T07:05:42.070Z,10.30
2022-08-16T07:08:52.852Z,10.25
2022-08-16T07:11:54.698Z,12.13
2022-08-16T07:15:08.507Z,11.02
2022-08-16T07:18:20.487Z,9.93
2022-08-16T07:21:22.626Z,11.40
2022-08-16T07:24:30.180Z,12.18
2022-08-16T07:27:37.681Z,9.75
2022-08-16T07:30:47.032Z,12.20
2022-08-16T07:34:03.560Z,10.73
2022-08-16T07:37:12.746Z,17.48
2022-08-16T07:41:00.223Z,10.57
2022-08-16T07:43:59.964Z,12.75
2022-08-16T07:47:03.968Z,11.43
2022-08-16T07:50:07.675Z,10.73
2022-08-16T07:53:10.523Z,10.98
2022-08-16T07:56:14.266Z,10.95
2022-08-16T07:59:16.499Z,11.38
2022-08-16T08:02:20.299Z,13.15
2022-08-16T08:05:35.809Z,10.40
2022-08-16T08:08:51.616Z,12.55
2022-08-16T08:12:01.189Z,10.18
2022-08-16T08:15:11.299Z,10.75
2022-08-16T08:18:30.294Z,13.75
2022-08-16T08:21:58.921Z,10.27
2022-08-16T08:25:04.221Z,11.40
2022-08-16T08:28:10.966Z,9.75
2022-08-16T08:31:17.207Z,10.63
2022-08-16T08:34:21.190Z,8.48
2022-08-16T08:37:25.542Z,9.30
2022-08-16T08:40:30.947Z,9.85
2022-08-16T08:43:41.294Z,12.73
2022-08-16T08:46:44.715Z,10.05
2022-08-16T08:50:03.234Z,9.00
2022-08-16T08:53:08.177Z,10.07
2022-08-16T08:56:23.587Z,8.98
2022-08-16T08:59:40.877Z,12.38
2022-08-16T09:02:52.239Z,9.65
2022-08-16T09:05:54.692Z,16.33
2022-08-16T09:08:57.241Z,9.43
2022-08-16T09:12:06.558Z,10.02
2022-08-16T09:15:23.860Z,10.35
2022-08-16T09:18:35.597Z,11.40
2022-08-16T09:21:39.339Z,10.43
2022-08-16T09:24:52.780Z,10.85
2022-08-16T09:28:02.168Z,11.20
2022-08-16T09:31:06.858Z,10.73
2022-08-16T09:34:18.647Z,11.07
2022-08-16T09:37:21.197Z,11.20
2022-08-16T09:40:42.887Z,11.27
2022-08-16T09:44:00.665Z,10.50
2022-08-16T09:47:03.969Z,10.65
2022-08-16T09:50:13.027Z,15.27
2022-08-16T09:53:24.469Z,11.48
2022-08-16T09:56:28.862Z,11.10
2022-08-16T09:59:38.672Z,11.63
2022-08-16T10:02:44.283Z,11.20
2022-08-16T10:05:50.060Z,11.15
2022-08-16T10:09:05.997Z,11.38
2022-08-16T10:12:28.318Z,13.93
2022-08-16T10:15:31.130Z,10.52
2022-08-16T10:19:02.351Z,10.18
2022-08-16T10:21:57.223Z,10.95
2022-08-16T10:25:00.317Z,10.40
2022-08-16T10:28:28.249Z,8.35
2022-08-16T10:31:45.571Z,9.35
2022-08-16T10:34:45.549Z,7.90
2022-08-16T10:37:53.241Z,13.65
2022-08-16T10:40:54.976Z,8.20
2022-08-16T10:43:56.690Z,8.90
2022-08-16T10:46:58.439Z,8.45
2022-08-16T10:50:00.512Z,7.57
2022-08-16T10:53:07.446Z,7.63
2022-08-16T10:56:52.414Z,8.38
2022-08-16T10:59:45.911Z,11.27
2022-08-16T11:02:57.909Z,9.05
2022-08-16T11:06:03.253Z,8.30
2022-08-16T11:09:24.721Z,8.52
2022-08-16T11:12:27.835Z,8.93
2022-08-16T11:15:31.116Z,9.57
2022-08-16T11:19:03.567Z,8.60
2022-08-16T11:22:39.635Z,9.00
2022-08-16T11:32:06.141Z,9.25
2022-08-16T11:35:15.012Z,8.90
2022-08-16T11:38:46.760Z,8.80
2022-08-16T11:41:43.639Z,9.43
2022-08-16T11:44:52.816Z,9.57
2022-08-16T11:47:57.673Z,9.00
2022-08-16T11:50:59.670Z,9.45
2022-08-16T11:54:01.507Z,9.75
2022-08-16T11:57:09.145Z,9.00
2022-08-16T12:00:42.630Z,13.10
2022-08-16T12:03:35.793Z,9.20
2022-08-16T12:06:37.820Z,9.65
2022-08-16T12:09:43.375Z,9.82
2022-08-16T12:12:46.701Z,9.23
2022-08-16T12:15:48.722Z,10.55
2022-08-16T12:18:52.167Z,10.75
2022-08-16T12:21:58.511Z,9.88
2022-08-16T12:25:01.239Z,8.95
2022-08-16T12:28:03.802Z,10.10
2022-08-16T12:31:05.610Z,9.50
2022-08-16T12:34:07.848Z,8.20
2022-08-16T12:37:11.499Z,9.18
2022-08-16T12:40:23.949Z,9.00
2022-08-16T12:43:31.239Z,8.55
2022-08-16T12:46:33.533Z,7.60
2022-08-16T12:49:41.960Z,8.30
2022-08-16T12:52:44.430Z,7.90
2022-08-16T12:55:54.850Z,7.75
2022-08-16T12:58:57.837Z,6.60
2022-08-16T13:02:01.791Z,7.18
2022-08-16T13:05:04.375Z,8.43
2022-08-16T13:08:10.128Z,7.53
2022-08-16T13:11:25.375Z,7.28
2022-08-16T13:14:33.510Z,7.90
2022-08-16T13:17:35.666Z,7.78
2022-08-16T13:20:37.547Z,11.68
2022-08-16T13:23:43.428Z,6.32
2022-08-16T13:26:45.586Z,6.90
2022-08-16T13:29:57.863Z,6.90
2022-08-16T13:32:59.791Z,9.25
2022-08-16T13:36:03.167Z,7.30
2022-08-16T13:39:05.527Z,7.65
2022-08-16T13:42:10.776Z,7.55
2022-08-16T13:45:15.479Z,10.27
2022-08-16T13:48:24.550Z,8.60
2022-08-16T13:51:29.175Z,7.32
2022-08-16T13:54:32.843Z,7.07
2022-08-16T13:58:35.695Z,9.98
2022-08-16T14:00:56.115Z,8.00
2022-08-16T14:03:58.861Z,7.32
2022-08-16T14:07:01.870Z,7.80
2022-08-16T14:10:04.731Z,9.20
2022-08-16T14:13:07.206Z,7.20
2022-08-16T14:16:24.263Z,6.78
2022-08-16T14:19:35.229Z,7.13
2022-08-16T14:22:39.963Z,8.15
2022-08-16T14:25:53.800Z,7.07
2022-08-16T14:28:57.885Z,6.88
2022-08-16T14:32:05.770Z,9.25
2022-08-16T14:35:09.865Z,7.82
2022-08-16T14:38:13.554Z,8.82
2022-08-16T14:41:20.195Z,7.53
2022-08-16T14:44:21.881Z,6.50
2022-08-16T14:47:23.577Z,7.03
2022-08-16T14:50:26.550Z,8.10
2022-08-16T14:53:29.038Z,6.82
2022-08-16T14:56:38.993Z,6.63
2022-08-16T14:59:45.997Z,6.68
2022-08-16T15:02:52.248Z,6.43
2022-08-16T15:05:55.856Z,6.53
2022-08-16T15:08:57.479Z,7.00
2022-08-16T15:12:05.515Z,8.18
2022-08-16T15:15:12.584Z,7.10
2022-08-16T15:18:23.309Z,9.10
2022-08-16T15:21:26.577Z,7.43
2022-08-16T15:24:31.087Z,7.45
2022-08-16T15:27:42.225Z,7.95
2022-08-16T15:30:59.819Z,6.97
2022-08-16T15:34:04.804Z,7.28
2022-08-16T15:37:06.494Z,10.10
2022-08-16T15:40:26.544Z,6.93
2022-08-16T15:43:39.282Z,11.15
2022-08-16T15:46:55.750Z,6.97
2022-08-16T15:49:59.956Z,7.28
2022-08-16T15:53:04.928Z,7.13
2022-08-16T15:56:12.969Z,7.03
2022-08-16T15:59:16.425Z,6.38
2022-08-16T16:02:29.694Z,9.40
2022-08-16T16:05:33.762Z,7.47
2022-08-16T16:08:35.546Z,8.20
2022-08-16T16:11:40.974Z,7.72
2022-08-16T16:14:43.435Z,7.60
2022-08-16T16:17:58.724Z,7.43
2022-08-16T16:21:20.429Z,6.85
2022-08-16T16:24:23.964Z,7.18
2022-08-16T16:27:32.549Z,7.50
2022-08-16T16:30:44.600Z,7.55
2022-08-16T16:33:57.297Z,18.30
2022-08-16T16:36:59.986Z,8.43
2022-08-16T16:40:12.748Z,7.30
2022-08-16T16:43:16.229Z,7.50
2022-08-16T16:46:40.984Z,6.45
2022-08-16T16:49:43.810Z,9.48
2022-08-16T16:52:45.828Z,8.00
2022-08-16T16:56:08.948Z,13.73
2022-08-16T16:59:25.580Z,7.80
2022-08-16T17:02:46.188Z,7.50
2022-08-16T17:06:03.254Z,7.20
2022-08-16T17:09:14.039Z,8.82
2022-08-16T17:12:46.512Z,6.90
2022-08-16T17:16:02.916Z,8.57
2022-08-16T17:19:22.074Z,8.57
2022-08-16T17:22:32.685Z,6.63
2022-08-16T17:25:36.839Z,7.10
2022-08-16T17:28:58.048Z,5.83
2022-08-16T17:32:34.147Z,6.07
2022-08-16T17:35:37.691Z,8.00
2022-08-16T17:38:44.596Z,5.80
2022-08-16T17:41:49.934Z,8.30
2022-08-16T17:44:51.639Z,7.53
2022-08-16T17:47:53.291Z,7.20
2022-08-16T17:50:55.080Z,5.93
2022-08-16T17:53:56.884Z,9.17
2022-08-16T17:57:00.431Z,7.03
2022-08-16T18:00:03.154Z,7.03
2022-08-16T18:03:24.103Z,6.47
2022-08-16T18:06:43.492Z,6.90
2022-08-16T18:09:45.218Z,7.07
2022-08-16T18:13:04.107Z,8.47
2022-08-16T18:16:08.288Z,6.60
2022-08-16T18:19:10.710Z,6.53
2022-08-16T18:22:18.371Z,6.67
2022-08-16T18:25:25.767Z,7.70
2022-08-16T18:28:29.393Z,6.87
2022-08-16T18:31:31.939Z,7.03
2022-08-16T18:34:33.797Z,7.03
2022-08-16T18:37:38.840Z,7.20
2022-08-16T18:40:51.413Z,6.90
2022-08-16T18:44:23.442Z,7.77
2022-08-16T18:47:19.998Z,6.77
2022-08-16T18:50:28.013Z,7.27
2022-08-16T18:53:53.499Z,7.33
2022-08-16T18:56:58.200Z,7.17
2022-08-16T18:59:59.988Z,9.90
2022-08-16T19:03:06.405Z,8.37
2022-08-16T19:06:13.557Z,9.07
2022-08-16T19:09:15.700Z,7.67
2022-08-16T19:12:17.354Z,8.23
2022-08-16T19:15:39.653Z,8.97
2022-08-16T19:18:41.725Z,8.10
2022-08-16T19:21:43.475Z,7.67
2022-08-16T19:24:45.163Z,9.90
2022-08-16T19:27:46.869Z,8.67
2022-08-16T19:30:50.800Z,8.43
2022-08-16T19:33:56.894Z,8.77
2022-08-16T19:36:58.644Z,9.47
2022-08-16T19:40:00.680Z,8.83
2022-08-16T19:43:02.440Z,10.57
2022-08-16T19:46:05.223Z,13.50
2022-08-16T19:49:06.953Z,9.33
2022-08-16T19:52:17.097Z,10.67
2022-08-16T19:55:22.438Z,11.07
2022-08-16T19:58:24.338Z,8.90
2022-08-16T20:01:25.970Z,10.27
2022-08-16T20:04:27.781Z,10.63
2022-08-16T20:07:29.414Z,8.57
2022-08-16T20:10:31.119Z,11.67
2022-08-16T20:13:34.124Z,9.27
2022-08-16T20:16:36.062Z,10.43
2022-08-16T20:19:40.586Z,9.73
2022-08-16T20:22:53.548Z,9.77
2022-08-16T20:25:56.025Z,9.27
2022-08-16T20:28:57.746Z,10.60
2022-08-16T20:31:59.525Z,9.40
2022-08-16T20:35:01.854Z,12.60
2022-08-16T20:38:04.288Z,10.03
2022-08-16T20:41:06.040Z,12.13
2022-08-16T20:44:10.100Z,9.53
2022-08-16T20:47:11.949Z,9.53
2022-08-16T20:50:13.705Z,9.57
2022-08-16T20:53:15.413Z,11.60
2022-08-16T20:56:18.597Z,8.77
2022-08-16T20:59:20.302Z,10.23
2022-08-16T21:02:27.255Z,10.00
2022-08-16T21:05:31.130Z,9.60
2022-08-16T21:08:51.591Z,9.63
2022-08-16T21:11:57.613Z,10.47
2022-08-16T21:15:08.370Z,10.20
2022-08-16T21:18:10.833Z,11.37
2022-08-16T21:21:13.109Z,11.50
2022-08-16T21:24:17.273Z,9.70
2022-08-16T21:27:19.495Z,10.27
2022-08-16T21:30:27.972Z,14.10
2022-08-16T21:33:34.697Z,11.63
2022-08-16T21:36:37.107Z,12.43
2022-08-16T21:39:39.948Z,10.00
2022-08-16T21:42:42.955Z,10.20
2022-08-16T21:45:45.645Z,11.07
2022-08-16T21:48:47.795Z,11.43
2022-08-16T21:51:51.304Z,12.03
2022-08-16T21:54:56.413Z,11.90
2022-08-16T21:57:59.024Z,10.80
2022-08-16T22:01:01.897Z,12.93
2022-08-16T22:04:37.821Z,16.97
2022-08-16T22:07:27.757Z,10.60
2022-08-16T22:11:06.449Z,14.03
2022-08-16T22:13:58.045Z,11.57
2022-08-16T22:17:01.185Z,12.30
2022-08-16T22:20:04.347Z,10.87
2022-08-16T22:23:11.023Z,10.17
2022-08-16T22:26:14.731Z,11.70
2022-08-16T22:29:16.377Z,13.47
2022-08-16T22:32:18.081Z,13.60
2022-08-16T22:35:19.755Z,12.20
2022-08-16T22:38:53.758Z,12.10
2022-08-16T22:41:45.605Z,10.47
2022-08-16T22:44:47.733Z,11.00
2022-08-16T22:47:49.978Z,12.13
2022-08-16T22:50:51.661Z,10.60
2022-08-16T22:53:53.761Z,11.70
2022-08-16T22:56:57.375Z,11.47
2022-08-16T22:59:59.127Z,13.57
2022-08-16T23:03:00.843Z,11.70
2022-08-16T23:06:02.889Z,10.80
2022-08-16T23:09:04.574Z,14.50
2022-08-16T23:12:07.511Z,14.53
2022-08-16T23:15:09.470Z,10.77
2022-08-16T23:18:15.909Z,12.53
2022-08-16T23:21:18.101Z,12.70
2022-08-16T23:24:20.532Z,11.13
2022-08-16T23:27:22.849Z,12.40
2022-08-16T23:30:25.551Z,10.10
2022-08-16T23:33:28.254Z,11.10
2022-08-16T23:36:29.845Z,13.13
2022-08-16T23:39:31.560Z,10.17
2022-08-16T23:42:52.452Z,13.73
2022-08-16T23:45:57.028Z,11.17
2022-08-16T23:49:59.217Z,11.00
2022-08-16T23:52:42.142Z,11.33
2022-08-16T23:55:45.357Z,12.80
2022-08-16T23:58:48.699Z,11.40
